sensor_id;sensor_type;location;lat;lon;timestamp;pressure;altitude;pressure_sealevel;temperature;humidity
60611;BME280;46439;51.164;13.572;2023-03-16T00:00:37;100627.79;;;1.02;74.79
60611;BME280;46439;51.164;13.572;2023-03-16T00:03:06;100626.98;;;0.98;75.03
60611;BME280;46439;51.164;13.572;2023-03-16T00:05:35;100627.91;;;0.97;74.83
60611;BME280;46439;51.164;13.572;2023-03-16T00:08:04;100629.09;;;0.93;74.90
60611;BME280;46439;51.164;13.572;2023-03-16T00:10:32;100628.92;;;0.87;74.62
60611;BME280;46439;51.164;13.572;2023-03-16T00:13:01;100628.25;;;0.87;74.74
60611;BME280;46439;51.164;13.572;2023-03-16T00:15:30;100627.38;;;0.84;74.81
60611;BME280;46439;51.164;13.572;2023-03-16T00:17:58;100634.78;;;0.79;74.61
60611;BME280;46439;51.164;13.572;2023-03-16T00:20:27;100637.67;;;0.78;74.76
60611;BME280;46439;51.164;13.572;2023-03-16T00:22:56;100634.45;;;0.79;74.71
60611;BME280;46439;51.164;13.572;2023-03-16T00:25:25;100631.58;;;0.76;74.49
60611;BME280;46439;51.164;13.572;2023-03-16T00:28:11;100630.51;;;0.76;74.77
60611;BME280;46439;51.164;13.572;2023-03-16T00:30:41;100630.83;;;0.74;74.56
60611;BME280;46439;51.164;13.572;2023-03-16T00:33:14;100636.11;;;0.72;74.65
60611;BME280;46439;51.164;13.572;2023-03-16T00:35:46;100638.20;;;0.70;74.65
60611;BME280;46439;51.164;13.572;2023-03-16T00:38:18;100639.23;;;0.67;74.51
60611;BME280;46439;51.164;13.572;2023-03-16T00:40:47;100640.91;;;0.63;74.37
60611;BME280;46439;51.164;13.572;2023-03-16T00:43:18;100637.88;;;0.61;74.56
60611;BME280;46439;51.164;13.572;2023-03-16T00:45:47;100640.32;;;0.59;74.63
60611;BME280;46439;51.164;13.572;2023-03-16T00:48:15;100643.41;;;0.57;74.75
60611;BME280;46439;51.164;13.572;2023-03-16T00:50:45;100645.40;;;0.54;74.73
60611;BME280;46439;51.164;13.572;2023-03-16T00:53:14;100642.79;;;0.53;74.68
60611;BME280;46439;51.164;13.572;2023-03-16T00:55:43;100649.73;;;0.47;74.42
60611;BME280;46439;51.164;13.572;2023-03-16T00:58:11;100652.53;;;0.33;74.33
60611;BME280;46439;51.164;13.572;2023-03-16T01:00:42;100651.63;;;0.28;74.32
60611;BME280;46439;51.164;13.572;2023-03-16T01:03:10;100654.41;;;0.26;74.28
60611;BME280;46439;51.164;13.572;2023-03-16T01:05:42;100657.49;;;0.28;74.33
60611;BME280;46439;51.164;13.572;2023-03-16T01:08:10;100660.93;;;0.29;74.25
60611;BME280;46439;51.164;13.572;2023-03-16T01:10:39;100664.73;;;0.34;74.73
60611;BME280;46439;51.164;13.572;2023-03-16T01:13:08;100667.83;;;0.41;74.86
60611;BME280;46439;51.164;13.572;2023-03-16T01:15:36;100669.62;;;0.44;74.80
60611;BME280;46439;51.164;13.572;2023-03-16T01:18:05;100671.62;;;0.46;74.68
60611;BME280;46439;51.164;13.572;2023-03-16T01:20:34;100678.02;;;0.48;74.81
60611;BME280;46439;51.164;13.572;2023-03-16T01:23:02;100676.05;;;0.48;75.04
60611;BME280;46439;51.164;13.572;2023-03-16T01:25:31;100678.19;;;0.48;74.93
60611;BME280;46439;51.164;13.572;2023-03-16T01:27:59;100676.17;;;0.43;74.74
60611;BME280;46439;51.164;13.572;2023-03-16T01:30:29;100676.13;;;0.38;74.87
60611;BME280;46439;51.164;13.572;2023-03-16T01:32:57;100678.80;;;0.32;74.57
60611;BME280;46439;51.164;13.572;2023-03-16T01:35:26;100678.98;;;0.27;74.35
60611;BME280;46439;51.164;13.572;2023-03-16T01:37:54;100678.85;;;0.23;74.49
60611;BME280;46439;51.164;13.572;2023-03-16T01:40:23;100675.73;;;0.25;74.77
60611;BME280;46439;51.164;13.572;2023-03-16T01:43:02;100673.00;;;0.32;74.71
60611;BME280;46439;51.164;13.572;2023-03-16T01:48:54;100674.91;;;0.41;75.10
60611;BME280;46439;51.164;13.572;2023-03-16T01:51:26;100674.66;;;0.42;75.33
60611;BME280;46439;51.164;13.572;2023-03-16T01:54:00;100678.21;;;0.39;75.30
60611;BME280;46439;51.164;13.572;2023-03-16T01:56:32;100680.21;;;0.38;74.99
60611;BME280;46439;51.164;13.572;2023-03-16T01:59:06;100675.33;;;0.37;75.17
60611;BME280;46439;51.164;13.572;2023-03-16T02:01:37;100678.44;;;0.38;75.26
60611;BME280;46439;51.164;13.572;2023-03-16T02:04:12;100675.66;;;0.40;75.15
60611;BME280;46439;51.164;13.572;2023-03-16T02:06:43;100675.22;;;0.45;75.45
60611;BME280;46439;51.164;13.572;2023-03-16T02:09:13;100675.27;;;0.47;75.26
60611;BME280;46439;51.164;13.572;2023-03-16T02:11:43;100672.67;;;0.48;75.52
60611;BME280;46439;51.164;13.572;2023-03-16T02:14:12;100667.66;;;0.47;75.63
60611;BME280;46439;51.164;13.572;2023-03-16T02:16:41;100669.33;;;0.48;75.41
60611;BME280;46439;51.164;13.572;2023-03-16T02:19:13;100669.14;;;0.48;75.36
60611;BME280;46439;51.164;13.572;2023-03-16T02:21:49;100665.67;;;0.50;75.80
60611;BME280;46439;51.164;13.572;2023-03-16T02:24:22;100665.08;;;0.53;75.62
60611;BME280;46439;51.164;13.572;2023-03-16T02:26:54;100670.52;;;0.60;75.83
60611;BME280;46439;51.164;13.572;2023-03-16T02:32:23;100676.30;;;0.55;75.72
60611;BME280;46439;51.164;13.572;2023-03-16T02:34:54;100674.51;;;0.50;75.48
60611;BME280;46439;51.164;13.572;2023-03-16T02:37:24;100680.77;;;0.49;75.31
60611;BME280;46439;51.164;13.572;2023-03-16T02:39:52;100676.34;;;0.47;75.47
60611;BME280;46439;51.164;13.572;2023-03-16T02:42:24;100680.20;;;0.44;75.32
60611;BME280;46439;51.164;13.572;2023-03-16T02:44:56;100676.83;;;0.42;75.51
60611;BME280;46439;51.164;13.572;2023-03-16T02:47:30;100679.33;;;0.38;75.13
60611;BME280;46439;51.164;13.572;2023-03-16T02:50:01;100680.51;;;0.33;74.82
60611;BME280;46439;51.164;13.572;2023-03-16T02:52:34;100680.05;;;0.30;75.07
60611;BME280;46439;51.164;13.572;2023-03-16T02:55:03;100679.53;;;0.26;74.92
60611;BME280;46439;51.164;13.572;2023-03-16T02:57:32;100681.61;;;0.18;74.82
60611;BME280;46439;51.164;13.572;2023-03-16T03:00:01;100680.91;;;0.13;74.61
60611;BME280;46439;51.164;13.572;2023-03-16T03:02:33;100683.48;;;0.08;74.48
60611;BME280;46439;51.164;13.572;2023-03-16T03:05:02;100679.59;;;0.08;74.76
60611;BME280;46439;51.164;13.572;2023-03-16T03:07:31;100675.30;;;0.09;74.78
60611;BME280;46439;51.164;13.572;2023-03-16T03:09:59;100674.89;;;0.07;74.72
60611;BME280;46439;51.164;13.572;2023-03-16T03:12:30;100676.06;;;0.05;74.70
60611;BME280;46439;51.164;13.572;2023-03-16T03:14:58;100677.77;;;0.06;74.75
60611;BME280;46439;51.164;13.572;2023-03-16T03:17:27;100678.27;;;0.12;74.97
60611;BME280;46439;51.164;13.572;2023-03-16T03:19:58;100678.02;;;0.19;75.03
60611;BME280;46439;51.164;13.572;2023-03-16T03:22:27;100682.77;;;0.23;75.21
60611;BME280;46439;51.164;13.572;2023-03-16T03:24:55;100681.69;;;0.23;75.42
60611;BME280;46439;51.164;13.572;2023-03-16T03:27:25;100682.90;;;0.29;75.28
60611;BME280;46439;51.164;13.572;2023-03-16T03:29:53;100682.18;;;0.29;75.30
60611;BME280;46439;51.164;13.572;2023-03-16T03:32:21;100683.28;;;0.32;75.41
60611;BME280;46439;51.164;13.572;2023-03-16T03:34:50;100686.77;;;0.29;75.34
60611;BME280;46439;51.164;13.572;2023-03-16T03:37:18;100687.93;;;0.31;75.30
60611;BME280;46439;51.164;13.572;2023-03-16T03:39:47;100689.19;;;0.28;75.39
60611;BME280;46439;51.164;13.572;2023-03-16T03:42:15;100693.73;;;0.23;75.11
60611;BME280;46439;51.164;13.572;2023-03-16T03:44:44;100698.47;;;0.24;74.98
60611;BME280;46439;51.164;13.572;2023-03-16T03:47:12;100698.45;;;0.30;75.25
60611;BME280;46439;51.164;13.572;2023-03-16T03:49:41;100701.23;;;0.36;75.51
60611;BME280;46439;51.164;13.572;2023-03-16T03:52:09;100704.05;;;0.36;75.55
60611;BME280;46439;51.164;13.572;2023-03-16T03:54:38;100707.63;;;0.36;75.46
60611;BME280;46439;51.164;13.572;2023-03-16T03:57:07;100706.88;;;0.34;75.51
60611;BME280;46439;51.164;13.572;2023-03-16T03:59:35;100703.20;;;0.33;75.19
60611;BME280;46439;51.164;13.572;2023-03-16T04:02:10;100704.31;;;0.29;75.24
60611;BME280;46439;51.164;13.572;2023-03-16T04:04:39;100704.20;;;0.28;75.33
60611;BME280;46439;51.164;13.572;2023-03-16T04:07:08;100706.42;;;0.29;75.31
60611;BME280;46439;51.164;13.572;2023-03-16T04:09:37;100704.13;;;0.35;75.30
60611;BME280;46439;51.164;13.572;2023-03-16T04:12:07;100710.15;;;0.41;75.59
60611;BME280;46439;51.164;13.572;2023-03-16T04:14:36;100710.89;;;0.43;75.72
60611;BME280;46439;51.164;13.572;2023-03-16T04:17:05;100711.66;;;0.48;75.65
60611;BME280;46439;51.164;13.572;2023-03-16T04:19:33;100710.49;;;0.52;75.82
60611;BME280;46439;51.164;13.572;2023-03-16T04:22:02;100708.44;;;0.54;76.07
60611;BME280;46439;51.164;13.572;2023-03-16T04:24:30;100707.02;;;0.57;75.93
60611;BME280;46439;51.164;13.572;2023-03-16T04:27:01;100705.55;;;0.61;75.86
60611;BME280;46439;51.164;13.572;2023-03-16T04:29:30;100705.83;;;0.65;76.09
60611;BME280;46439;51.164;13.572;2023-03-16T04:31:59;100704.88;;;0.63;75.91
60611;BME280;46439;51.164;13.572;2023-03-16T04:34:28;100706.80;;;0.61;76.09
60611;BME280;46439;51.164;13.572;2023-03-16T04:36:56;100706.40;;;0.58;75.82
60611;BME280;46439;51.164;13.572;2023-03-16T04:39:25;100707.55;;;0.51;75.74
60611;BME280;46439;51.164;13.572;2023-03-16T04:41:53;100704.45;;;0.44;75.47
60611;BME280;46439;51.164;13.572;2023-03-16T04:44:22;100702.45;;;0.45;75.50
60611;BME280;46439;51.164;13.572;2023-03-16T04:46:52;100703.40;;;0.44;75.40
60611;BME280;46439;51.164;13.572;2023-03-16T04:49:21;100701.88;;;0.37;75.48
60611;BME280;46439;51.164;13.572;2023-03-16T04:51:49;100702.11;;;0.28;75.16
60611;BME280;46439;51.164;13.572;2023-03-16T04:54:18;100703.54;;;0.30;75.31
60611;BME280;46439;51.164;13.572;2023-03-16T04:56:46;100703.06;;;0.32;75.15
60611;BME280;46439;51.164;13.572;2023-03-16T04:59:15;100704.17;;;0.37;75.34
60611;BME280;46439;51.164;13.572;2023-03-16T05:01:43;100703.98;;;0.44;75.74
60611;BME280;46439;51.164;13.572;2023-03-16T05:04:12;100701.68;;;0.46;75.70
60611;BME280;46439;51.164;13.572;2023-03-16T05:06:40;100705.55;;;0.44;75.74
60611;BME280;46439;51.164;13.572;2023-03-16T05:09:09;100703.72;;;0.39;75.69
60611;BME280;46439;51.164;13.572;2023-03-16T05:11:37;100704.17;;;0.37;75.58
60611;BME280;46439;51.164;13.572;2023-03-16T05:14:06;100706.40;;;0.42;75.57
60611;BME280;46439;51.164;13.572;2023-03-16T05:16:34;100704.42;;;0.42;75.66
60611;BME280;46439;51.164;13.572;2023-03-16T05:19:03;100702.68;;;0.36;75.37
60611;BME280;46439;51.164;13.572;2023-03-16T05:21:32;100705.42;;;0.26;75.38
60611;BME280;46439;51.164;13.572;2023-03-16T05:24:02;100713.05;;;0.19;75.31
60611;BME280;46439;51.164;13.572;2023-03-16T05:26:31;100712.75;;;0.19;75.41
60611;BME280;46439;51.164;13.572;2023-03-16T05:29:00;100716.20;;;0.23;75.26
60611;BME280;46439;51.164;13.572;2023-03-16T05:31:29;100713.30;;;0.24;75.43
60611;BME280;46439;51.164;13.572;2023-03-16T05:34:01;100715.98;;;0.26;75.68
60611;BME280;46439;51.164;13.572;2023-03-16T05:36:30;100716.17;;;0.29;75.65
60611;BME280;46439;51.164;13.572;2023-03-16T05:38:58;100721.47;;;0.35;75.76
60611;BME280;46439;51.164;13.572;2023-03-16T05:41:27;100719.96;;;0.40;75.94
60611;BME280;46439;51.164;13.572;2023-03-16T05:43:55;100719.72;;;0.44;75.90
60611;BME280;46439;51.164;13.572;2023-03-16T05:46:23;100721.52;;;0.49;76.16
60611;BME280;46439;51.164;13.572;2023-03-16T05:48:52;100722.30;;;0.51;76.19
60611;BME280;46439;51.164;13.572;2023-03-16T05:51:20;100727.83;;;0.50;75.94
60611;BME280;46439;51.164;13.572;2023-03-16T05:53:50;100724.02;;;0.51;75.93
60611;BME280;46439;51.164;13.572;2023-03-16T05:56:18;100723.55;;;0.53;75.93
60611;BME280;46439;51.164;13.572;2023-03-16T05:58:47;100727.11;;;0.56;76.05
60611;BME280;46439;51.164;13.572;2023-03-16T06:01:15;100726.81;;;0.58;76.09
60611;BME280;46439;51.164;13.572;2023-03-16T06:03:44;100730.44;;;0.56;76.05
60611;BME280;46439;51.164;13.572;2023-03-16T06:06:12;100734.27;;;0.52;75.81
60611;BME280;46439;51.164;13.572;2023-03-16T06:08:41;100736.15;;;0.50;75.84
60611;BME280;46439;51.164;13.572;2023-03-16T06:11:10;100739.96;;;0.45;75.80
60611;BME280;46439;51.164;13.572;2023-03-16T06:13:39;100736.63;;;0.45;75.46
60611;BME280;46439;51.164;13.572;2023-03-16T06:16:08;100739.09;;;0.43;75.52
60611;BME280;46439;51.164;13.572;2023-03-16T06:18:38;100742.77;;;0.46;75.66
60611;BME280;46439;51.164;13.572;2023-03-16T06:21:07;100742.09;;;0.54;75.86
60611;BME280;46439;51.164;13.572;2023-03-16T06:23:36;100741.48;;;0.61;75.96
60611;BME280;46439;51.164;13.572;2023-03-16T06:26:05;100742.63;;;0.69;76.22
60611;BME280;46439;51.164;13.572;2023-03-16T06:28:34;100744.25;;;0.77;76.21
60611;BME280;46439;51.164;13.572;2023-03-16T06:31:03;100740.59;;;0.84;76.52
60611;BME280;46439;51.164;13.572;2023-03-16T06:33:31;100739.26;;;0.85;76.35
60611;BME280;46439;51.164;13.572;2023-03-16T06:36:00;100740.23;;;0.87;76.43
60611;BME280;46439;51.164;13.572;2023-03-16T06:38:29;100744.11;;;0.93;76.32
60611;BME280;46439;51.164;13.572;2023-03-16T06:40:57;100743.30;;;1.03;76.75
60611;BME280;46439;51.164;13.572;2023-03-16T06:43:26;100743.83;;;1.06;76.43
60611;BME280;46439;51.164;13.572;2023-03-16T06:45:54;100745.97;;;1.14;76.60
60611;BME280;46439;51.164;13.572;2023-03-16T06:48:23;100748.57;;;1.23;76.68
60611;BME280;46439;51.164;13.572;2023-03-16T06:50:51;100746.86;;;1.33;77.02
60611;BME280;46439;51.164;13.572;2023-03-16T06:53:19;100747.47;;;1.40;76.97
60611;BME280;46439;51.164;13.572;2023-03-16T06:55:49;100746.25;;;1.42;77.10
60611;BME280;46439;51.164;13.572;2023-03-16T06:58:18;100747.23;;;1.44;77.08
60611;BME280;46439;51.164;13.572;2023-03-16T07:00:46;100749.14;;;1.47;76.92
60611;BME280;46439;51.164;13.572;2023-03-16T07:03:15;100751.04;;;1.50;77.07
60611;BME280;46439;51.164;13.572;2023-03-16T07:05:44;100750.10;;;1.51;76.92
60611;BME280;46439;51.164;13.572;2023-03-16T07:08:12;100744.52;;;1.52;76.82
60611;BME280;46439;51.164;13.572;2023-03-16T07:10:42;100749.48;;;1.55;76.86
60611;BME280;46439;51.164;13.572;2023-03-16T07:13:10;100751.94;;;1.61;76.96
60611;BME280;46439;51.164;13.572;2023-03-16T07:15:39;100756.84;;;1.70;77.10
60611;BME280;46439;51.164;13.572;2023-03-16T07:18:08;100756.89;;;1.75;77.16
60611;BME280;46439;51.164;13.572;2023-03-16T07:20:36;100759.02;;;1.75;76.98
60611;BME280;46439;51.164;13.572;2023-03-16T07:23:05;100759.99;;;1.79;77.34
60611;BME280;46439;51.164;13.572;2023-03-16T07:25:33;100757.88;;;1.84;77.30
60611;BME280;46439;51.164;13.572;2023-03-16T07:28:02;100759.94;;;1.90;77.08
60611;BME280;46439;51.164;13.572;2023-03-16T07:30:31;100760.00;;;1.97;77.31
60611;BME280;46439;51.164;13.572;2023-03-16T07:32:59;100759.35;;;2.02;77.12
60611;BME280;46439;51.164;13.572;2023-03-16T07:35:29;100760.81;;;2.06;77.14
60611;BME280;46439;51.164;13.572;2023-03-16T07:37:57;100759.71;;;2.15;77.09
60611;BME280;46439;51.164;13.572;2023-03-16T07:40:25;100756.37;;;2.20;77.50
60611;BME280;46439;51.164;13.572;2023-03-16T07:42:54;100752.95;;;2.25;77.28
60611;BME280;46439;51.164;13.572;2023-03-16T07:45:22;100751.44;;;2.31;77.26
60611;BME280;46439;51.164;13.572;2023-03-16T07:47:51;100751.84;;;2.41;77.35
60611;BME280;46439;51.164;13.572;2023-03-16T07:50:20;100754.28;;;2.50;77.58
60611;BME280;46439;51.164;13.572;2023-03-16T07:52:49;100757.94;;;2.58;77.67
60611;BME280;46439;51.164;13.572;2023-03-16T07:55:18;100764.48;;;2.69;77.33
60611;BME280;46439;51.164;13.572;2023-03-16T07:57:48;100763.80;;;2.81;77.94
60611;BME280;46439;51.164;13.572;2023-03-16T08:00:21;100763.84;;;2.91;77.93
60611;BME280;46439;51.164;13.572;2023-03-16T08:02:51;100765.52;;;3.02;78.23
60611;BME280;46439;51.164;13.572;2023-03-16T08:05:23;100764.84;;;3.12;77.99
60611;BME280;46439;51.164;13.572;2023-03-16T08:07:56;100768.10;;;3.18;78.00
60611;BME280;46439;51.164;13.572;2023-03-16T08:10:38;100765.68;;;3.27;77.74
60611;BME280;46439;51.164;13.572;2023-03-16T08:13:09;100762.83;;;3.39;78.29
60611;BME280;46439;51.164;13.572;2023-03-16T08:15:37;100762.02;;;3.48;78.30
60611;BME280;46439;51.164;13.572;2023-03-16T08:18:06;100763.44;;;3.51;78.19
60611;BME280;46439;51.164;13.572;2023-03-16T08:20:35;100767.62;;;3.54;78.13
60611;BME280;46439;51.164;13.572;2023-03-16T08:23:04;100767.25;;;3.59;78.08
60611;BME280;46439;51.164;13.572;2023-03-16T08:25:36;100773.52;;;3.66;78.21
60611;BME280;46439;51.164;13.572;2023-03-16T08:28:05;100775.11;;;3.73;78.34
60611;BME280;46439;51.164;13.572;2023-03-16T08:30:36;100773.18;;;3.80;78.41
60611;BME280;46439;51.164;13.572;2023-03-16T08:33:05;100768.51;;;3.90;78.73
60611;BME280;46439;51.164;13.572;2023-03-16T08:35:33;100767.45;;;3.99;78.69
60611;BME280;46439;51.164;13.572;2023-03-16T08:38:03;100770.33;;;4.06;78.72
60611;BME280;46439;51.164;13.572;2023-03-16T08:40:31;100774.34;;;4.12;78.81
60611;BME280;46439;51.164;13.572;2023-03-16T08:43:02;100772.34;;;4.19;78.93
60611;BME280;46439;51.164;13.572;2023-03-16T08:45:31;100776.09;;;4.29;78.85
60611;BME280;46439;51.164;13.572;2023-03-16T08:48:00;100778.73;;;4.38;78.97
60611;BME280;46439;51.164;13.572;2023-03-16T08:50:29;100778.27;;;4.42;78.82
60611;BME280;46439;51.164;13.572;2023-03-16T08:52:57;100781.19;;;4.46;78.74
60611;BME280;46439;51.164;13.572;2023-03-16T08:55:26;100783.16;;;4.55;79.25
60611;BME280;46439;51.164;13.572;2023-03-16T08:57:56;100779.15;;;4.67;79.09
60611;BME280;46439;51.164;13.572;2023-03-16T09:00:26;100779.50;;;4.79;79.32
60611;BME280;46439;51.164;13.572;2023-03-16T09:02:56;100779.11;;;4.86;79.38
60611;BME280;46439;51.164;13.572;2023-03-16T09:05:25;100776.61;;;4.91;79.18
60611;BME280;46439;51.164;13.572;2023-03-16T09:07:54;100780.33;;;5.00;79.61
60611;BME280;46439;51.164;13.572;2023-03-16T09:10:23;100780.92;;;5.10;79.55
60611;BME280;46439;51.164;13.572;2023-03-16T09:12:53;100784.81;;;5.17;79.69
60611;BME280;46439;51.164;13.572;2023-03-16T09:15:22;100784.92;;;5.23;79.53
60611;BME280;46439;51.164;13.572;2023-03-16T09:17:51;100788.97;;;5.26;79.39
60611;BME280;46439;51.164;13.572;2023-03-16T09:20:27;100783.98;;;5.28;79.38
60611;BME280;46439;51.164;13.572;2023-03-16T09:22:59;100783.11;;;5.61;79.79
60611;BME280;46439;51.164;13.572;2023-03-16T09:25:27;100783.38;;;5.86;80.41
60611;BME280;46439;51.164;13.572;2023-03-16T09:27:55;100783.48;;;5.93;80.47
60611;BME280;46439;51.164;13.572;2023-03-16T09:30:24;100786.27;;;5.96;80.21
60611;BME280;46439;51.164;13.572;2023-03-16T09:32:53;100787.48;;;5.97;80.13
60611;BME280;46439;51.164;13.572;2023-03-16T09:35:22;100785.09;;;5.98;79.85
60611;BME280;46439;51.164;13.572;2023-03-16T09:37:51;100782.33;;;5.99;79.90
60611;BME280;46439;51.164;13.572;2023-03-16T09:40:24;100779.23;;;6.00;79.74
60611;BME280;46439;51.164;13.572;2023-03-16T09:43:07;100778.52;;;6.02;79.72
60611;BME280;46439;51.164;13.572;2023-03-16T09:45:41;100774.88;;;6.04;79.66
60611;BME280;46439;51.164;13.572;2023-03-16T09:48:16;100776.38;;;6.10;79.71
60611;BME280;46439;51.164;13.572;2023-03-16T09:50:46;100776.31;;;6.15;79.71
60611;BME280;46439;51.164;13.572;2023-03-16T09:53:21;100771.48;;;6.19;79.65
60611;BME280;46439;51.164;13.572;2023-03-16T09:55:54;100767.95;;;6.21;79.77
60611;BME280;46439;51.164;13.572;2023-03-16T09:58:26;100766.27;;;6.24;79.67
60611;BME280;46439;51.164;13.572;2023-03-16T10:01:04;100765.98;;;6.27;79.57
60611;BME280;46439;51.164;13.572;2023-03-16T10:04:04;100765.33;;;6.33;79.55
60611;BME280;46439;51.164;13.572;2023-03-16T10:06:42;100768.73;;;6.41;79.73
60611;BME280;46439;51.164;13.572;2023-03-16T10:09:23;100775.09;;;6.46;79.65
60611;BME280;46439;51.164;13.572;2023-03-16T10:12:01;100773.71;;;6.50;79.71
60611;BME280;46439;51.164;13.572;2023-03-16T10:14:40;100768.15;;;6.56;79.81
60611;BME280;46439;51.164;13.572;2023-03-16T10:17:16;100764.71;;;6.61;79.74
60611;BME280;46439;51.164;13.572;2023-03-16T10:19:48;100766.34;;;6.67;79.78
60611;BME280;46439;51.164;13.572;2023-03-16T10:22:21;100764.98;;;6.72;79.74
60611;BME280;46439;51.164;13.572;2023-03-16T10:25:00;100768.06;;;6.76;79.68
60611;BME280;46439;51.164;13.572;2023-03-16T10:27:32;100769.10;;;6.80;79.59
60611;BME280;46439;51.164;13.572;2023-03-16T10:30:03;100769.58;;;6.85;79.50
60611;BME280;46439;51.164;13.572;2023-03-16T10:32:33;100763.11;;;6.89;79.67
60611;BME280;46439;51.164;13.572;2023-03-16T10:35:10;100762.66;;;6.95;79.51
60611;BME280;46439;51.164;13.572;2023-03-16T10:37:43;100762.50;;;6.98;79.64
60611;BME280;46439;51.164;13.572;2023-03-16T10:40:14;100759.33;;;7.04;79.43
60611;BME280;46439;51.164;13.572;2023-03-16T10:42:43;100753.86;;;7.09;79.57
60611;BME280;46439;51.164;13.572;2023-03-16T10:45:24;100754.17;;;7.14;79.57
60611;BME280;46439;51.164;13.572;2023-03-16T10:48:06;100758.93;;;7.22;79.70
60611;BME280;46439;51.164;13.572;2023-03-16T10:50:35;100761.11;;;7.30;79.58
60611;BME280;46439;51.164;13.572;2023-03-16T10:53:08;100758.50;;;7.38;79.76
60611;BME280;46439;51.164;13.572;2023-03-16T10:55:45;100755.48;;;7.45;79.79
60611;BME280;46439;51.164;13.572;2023-03-16T10:58:21;100753.20;;;7.53;79.71
60611;BME280;46439;51.164;13.572;2023-03-16T11:00:49;100749.21;;;7.59;79.74
60611;BME280;46439;51.164;13.572;2023-03-16T11:03:23;100744.45;;;7.66;79.79
60611;BME280;46439;51.164;13.572;2023-03-16T11:05:59;100742.19;;;7.71;79.68
60611;BME280;46439;51.164;13.572;2023-03-16T11:08:32;100735.77;;;7.77;79.59
60611;BME280;46439;51.164;13.572;2023-03-16T11:11:08;100731.85;;;7.80;79.71
60611;BME280;46439;51.164;13.572;2023-03-16T11:13:44;100724.70;;;7.84;79.66
60611;BME280;46439;51.164;13.572;2023-03-16T11:16:24;100721.25;;;7.88;79.47
60611;BME280;46439;51.164;13.572;2023-03-16T11:18:59;100717.54;;;7.94;79.32
60611;BME280;46439;51.164;13.572;2023-03-16T11:21:39;100715.91;;;7.99;79.41
60611;BME280;46439;51.164;13.572;2023-03-16T11:24:17;100715.52;;;8.07;79.39
60611;BME280;46439;51.164;13.572;2023-03-16T11:26:54;100713.80;;;8.15;79.50
60611;BME280;46439;51.164;13.572;2023-03-16T11:29:31;100710.73;;;8.24;79.50
60611;BME280;46439;51.164;13.572;2023-03-16T11:32:09;100708.71;;;8.34;79.64
60611;BME280;46439;51.164;13.572;2023-03-16T11:34:39;100706.84;;;8.43;79.73
60611;BME280;46439;51.164;13.572;2023-03-16T11:37:16;100704.60;;;8.52;79.77
60611;BME280;46439;51.164;13.572;2023-03-16T11:39:57;100705.21;;;8.58;79.61
60611;BME280;46439;51.164;13.572;2023-03-16T11:42:32;100703.60;;;8.58;79.62
60611;BME280;46439;51.164;13.572;2023-03-16T11:45:13;100701.00;;;8.59;79.33
60611;BME280;46439;51.164;13.572;2023-03-16T11:48:14;100694.71;;;8.65;79.27
60611;BME280;46439;51.164;13.572;2023-03-16T11:50:52;100693.63;;;8.67;79.40
60611;BME280;46439;51.164;13.572;2023-03-16T11:53:37;100695.98;;;8.72;79.26
60611;BME280;46439;51.164;13.572;2023-03-16T11:56:16;100692.49;;;8.80;79.41
60611;BME280;46439;51.164;13.572;2023-03-16T11:58:59;100689.39;;;8.81;79.43
60611;BME280;46439;51.164;13.572;2023-03-16T12:01:36;100682.19;;;8.81;79.24
60611;BME280;46439;51.164;13.572;2023-03-16T12:04:27;100681.10;;;8.87;79.14
60611;BME280;46439;51.164;13.572;2023-03-16T12:07:14;100677.78;;;8.91;79.12
60611;BME280;46439;51.164;13.572;2023-03-16T12:10:00;100672.67;;;8.98;78.94
60611;BME280;46439;51.164;13.572;2023-03-16T12:12:36;100669.11;;;9.07;79.16
60611;BME280;46439;51.164;13.572;2023-03-16T12:15:20;100664.73;;;9.14;79.25
60611;BME280;46439;51.164;13.572;2023-03-16T12:17:55;100657.69;;;9.22;79.33
60611;BME280;46439;51.164;13.572;2023-03-16T12:20:30;100656.40;;;9.22;79.25
60611;BME280;46439;51.164;13.572;2023-03-16T12:23:05;100654.50;;;9.27;78.92
60611;BME280;46439;51.164;13.572;2023-03-16T12:25:38;100645.98;;;9.30;78.86
60611;BME280;46439;51.164;13.572;2023-03-16T12:28:15;100649.06;;;9.35;78.93
60611;BME280;46439;51.164;13.572;2023-03-16T12:30:54;100642.43;;;9.40;78.91
60611;BME280;46439;51.164;13.572;2023-03-16T12:33:42;100640.48;;;9.45;78.81
60611;BME280;46439;51.164;13.572;2023-03-16T12:36:40;100643.45;;;9.52;78.95
60611;BME280;46439;51.164;13.572;2023-03-16T12:39:21;100642.89;;;9.60;79.18
60611;BME280;46439;51.164;13.572;2023-03-16T12:42:01;100641.52;;;9.65;78.74
60611;BME280;46439;51.164;13.572;2023-03-16T12:44:34;100640.71;;;9.68;78.85
60611;BME280;46439;51.164;13.572;2023-03-16T12:47:16;100637.85;;;9.70;78.75
60611;BME280;46439;51.164;13.572;2023-03-16T12:49:46;100634.55;;;9.74;78.67
60611;BME280;46439;51.164;13.572;2023-03-16T12:52:16;100633.11;;;9.81;78.64
60611;BME280;46439;51.164;13.572;2023-03-16T12:55:06;100632.58;;;9.88;78.83
60611;BME280;46439;51.164;13.572;2023-03-16T12:57:35;100627.16;;;9.90;78.89
60611;BME280;46439;51.164;13.572;2023-03-16T13:00:09;100628.14;;;9.89;78.66
60611;BME280;46439;51.164;13.572;2023-03-16T13:02:42;100620.42;;;9.89;78.36
60611;BME280;46439;51.164;13.572;2023-03-16T13:05:13;100615.60;;;9.90;78.57
60611;BME280;46439;51.164;13.572;2023-03-16T13:07:49;100613.41;;;9.94;78.53
60611;BME280;46439;51.164;13.572;2023-03-16T13:10:19;100608.44;;;9.97;78.40
60611;BME280;46439;51.164;13.572;2023-03-16T13:12:48;100604.61;;;9.97;78.35
60611;BME280;46439;51.164;13.572;2023-03-16T13:15:28;100601.23;;;9.97;78.34
60611;BME280;46439;51.164;13.572;2023-03-16T13:18:18;100598.55;;;10.02;78.26